METAR Data
IDs: Format: Raw Decoded Include TAF

Data at: 1601 UTC 10 Dec 2018

METAR for:KJAQ (Jackson/Westover Fld, CA, US)
Text:KJAQ 101555Z AUTO 33003KT 10SM OVC100 06/02 A3019 RMK AO1 T00560017
Temperature: 5.6°C ( 42°F)
Dewpoint: 1.7°C ( 35°F) [RH = 76%]
Pressure (altimeter):30.19 inches Hg (1022.4 mb)
Winds:from the NNW (330 degrees) at 3 MPH (3 knots; 1.5 m/s)
Visibility:10 or more sm (16+ km)
Ceiling:10000 feet AGL
Clouds: overcast cloud deck at 10000 feet AGL
QC Flag:automated observation with no human augmentation
Text:KJAQ 101535Z AUTO 33003KT 10SM BKN110 06/02 A3019 RMK AO1 T00600017
Temperature: 6.0°C ( 43°F)
Dewpoint: 1.7°C ( 35°F) [RH = 74%]
Pressure (altimeter):30.19 inches Hg (1022.4 mb)
Winds:from the NNW (330 degrees) at 3 MPH (3 knots; 1.5 m/s)
Visibility:10 or more sm (16+ km)
Ceiling:11000 feet AGL
Clouds: broken clouds at 11000 feet AGL
QC Flag:automated observation with no human augmentation
Text:KJAQ 101515Z AUTO 32004KT 10SM CLR 06/02 A3019 RMK AO1 T00570015
Temperature: 5.7°C ( 42°F)
Dewpoint: 1.5°C ( 35°F) [RH = 74%]
Pressure (altimeter):30.19 inches Hg (1022.4 mb)
Winds:from the NW (320 degrees) at 5 MPH (4 knots; 2.1 m/s)
Visibility:10 or more sm (16+ km)
Ceiling:at least 12,000 feet AGL
Clouds:sky clear below 12,000 feet AGL
QC Flag:automated observation with no human augmentation